sensor_id;sensor_type;location;lat;lon;timestamp;pressure;altitude;pressure_sealevel;temperature
61189;BMP280;47054;39.716;2.904;2022-07-01T00:02:16;100023.69;;;31.06
61189;BMP280;47054;39.716;2.904;2022-07-01T00:05:01;100036.72;;;31.11
61189;BMP280;47054;39.716;2.904;2022-07-01T00:08:05;100031.44;;;31.08
61189;BMP280;47054;39.716;2.904;2022-07-01T00:10:49;100035.13;;;31.05
61189;BMP280;47054;39.716;2.904;2022-07-01T00:13:35;100024.16;;;31.05
61189;BMP280;47054;39.716;2.904;2022-07-01T00:16:20;100014.34;;;30.98
61189;BMP280;47054;39.716;2.904;2022-07-01T00:19:05;100006.03;;;30.93
61189;BMP280;47054;39.716;2.904;2022-07-01T00:21:51;100006.75;;;30.93
61189;BMP280;47054;39.716;2.904;2022-07-01T00:24:36;100018.94;;;30.92
61189;BMP280;47054;39.716;2.904;2022-07-01T00:27:20;100000.81;;;30.80
61189;BMP280;47054;39.716;2.904;2022-07-01T00:30:07;100026.41;;;30.92
61189;BMP280;47054;39.716;2.904;2022-07-01T00:32:52;100039.59;;;30.93
61189;BMP280;47054;39.716;2.904;2022-07-01T00:35:38;100017.50;;;30.82
61189;BMP280;47054;39.716;2.904;2022-07-01T00:38:22;100028.56;;;30.88
61189;BMP280;47054;39.716;2.904;2022-07-01T00:41:07;100020.81;;;30.86
61189;BMP280;47054;39.716;2.904;2022-07-01T00:43:52;100027.06;;;30.87
61189;BMP280;47054;39.716;2.904;2022-07-01T00:46:37;100000.59;;;30.69
61189;BMP280;47054;39.716;2.904;2022-07-01T00:49:23;100006.34;;;30.71
61189;BMP280;47054;39.716;2.904;2022-07-01T00:52:10;100013.06;;;30.70
61189;BMP280;47054;39.716;2.904;2022-07-01T00:54:56;100028.06;;;30.74
61189;BMP280;47054;39.716;2.904;2022-07-01T00:57:42;100024.78;;;30.70
61189;BMP280;47054;39.716;2.904;2022-07-01T01:00:27;100019.19;;;30.65
61189;BMP280;47054;39.716;2.904;2022-07-01T01:03:12;100036.94;;;30.69
61189;BMP280;47054;39.716;2.904;2022-07-01T01:05:57;100030.28;;;30.61
61189;BMP280;47054;39.716;2.904;2022-07-01T01:08:46;100035.59;;;30.65
61189;BMP280;47054;39.716;2.904;2022-07-01T01:11:30;100035.94;;;30.58
61189;BMP280;47054;39.716;2.904;2022-07-01T01:14:16;100042.19;;;30.58
61189;BMP280;47054;39.716;2.904;2022-07-01T01:17:01;100051.00;;;30.62
61189;BMP280;47054;39.716;2.904;2022-07-01T01:19:46;100055.44;;;30.60
61189;BMP280;47054;39.716;2.904;2022-07-01T01:22:32;100028.94;;;30.42
61189;BMP280;47054;39.716;2.904;2022-07-01T01:25:17;100046.03;;;30.52
61189;BMP280;47054;39.716;2.904;2022-07-01T01:28:03;100040.16;;;30.44
61189;BMP280;47054;39.716;2.904;2022-07-01T01:30:47;100035.34;;;30.39
61189;BMP280;47054;39.716;2.904;2022-07-01T01:33:32;100056.72;;;30.41
61189;BMP280;47054;39.716;2.904;2022-07-01T01:36:16;100061.47;;;30.40
61189;BMP280;47054;39.716;2.904;2022-07-01T01:39:02;100041.78;;;30.27
61189;BMP280;47054;39.716;2.904;2022-07-01T01:42:08;100068.00;;;30.43
61189;BMP280;47054;39.716;2.904;2022-07-01T01:44:52;100056.31;;;30.33
61189;BMP280;47054;39.716;2.904;2022-07-01T01:47:38;100077.78;;;30.35
61189;BMP280;47054;39.716;2.904;2022-07-01T01:50:23;100086.41;;;30.33
61189;BMP280;47054;39.716;2.904;2022-07-01T01:53:08;100090.06;;;30.30
61189;BMP280;47054;39.716;2.904;2022-07-01T01:55:52;100081.28;;;30.26
61189;BMP280;47054;39.716;2.904;2022-07-01T01:58:37;100087.50;;;30.27
61189;BMP280;47054;39.716;2.904;2022-07-01T02:04:38;100088.94;;;30.22
61189;BMP280;47054;39.716;2.904;2022-07-01T02:07:23;100086.19;;;30.22
61189;BMP280;47054;39.716;2.904;2022-07-01T02:10:08;100083.03;;;30.15
61189;BMP280;47054;39.716;2.904;2022-07-01T02:12:53;100095.44;;;30.16
61189;BMP280;47054;39.716;2.904;2022-07-01T02:15:37;100087.91;;;30.11
61189;BMP280;47054;39.716;2.904;2022-07-01T02:18:23;100085.16;;;30.11
61189;BMP280;47054;39.716;2.904;2022-07-01T02:21:08;100083.19;;;30.11
61189;BMP280;47054;39.716;2.904;2022-07-01T02:23:52;100073.66;;;30.07
61189;BMP280;47054;39.716;2.904;2022-07-01T02:26:37;100063.69;;;29.95
61189;BMP280;47054;39.716;2.904;2022-07-01T02:29:22;100085.06;;;30.05
61189;BMP280;47054;39.716;2.904;2022-07-01T02:32:06;100089.44;;;30.03
61189;BMP280;47054;39.716;2.904;2022-07-01T02:34:51;100072.78;;;29.92
61189;BMP280;47054;39.716;2.904;2022-07-01T02:37:36;100093.59;;;29.98
61189;BMP280;47054;39.716;2.904;2022-07-01T02:40:24;100091.03;;;29.95
61189;BMP280;47054;39.716;2.904;2022-07-01T02:43:08;100098.91;;;29.93
61189;BMP280;47054;39.716;2.904;2022-07-01T02:45:53;100102.13;;;29.91
61189;BMP280;47054;39.716;2.904;2022-07-01T02:48:37;100077.25;;;29.71
61189;BMP280;47054;39.716;2.904;2022-07-01T02:51:22;100081.66;;;29.69
61189;BMP280;47054;39.716;2.904;2022-07-01T02:54:06;100112.13;;;29.85
61189;BMP280;47054;39.716;2.904;2022-07-01T02:56:51;100115.78;;;29.82
61189;BMP280;47054;39.716;2.904;2022-07-01T02:59:35;100118.25;;;29.80
61189;BMP280;47054;39.716;2.904;2022-07-01T03:02:20;100117.47;;;29.80
61189;BMP280;47054;39.716;2.904;2022-07-01T03:05:05;100119.63;;;29.76
61189;BMP280;47054;39.716;2.904;2022-07-01T03:07:50;100121.59;;;29.75
61189;BMP280;47054;39.716;2.904;2022-07-01T03:10:35;100081.38;;;29.58
61189;BMP280;47054;39.716;2.904;2022-07-01T03:13:19;100109.16;;;29.65
61189;BMP280;47054;39.716;2.904;2022-07-01T03:16:04;100103.25;;;29.58
61189;BMP280;47054;39.716;2.904;2022-07-01T03:18:48;100083.69;;;29.41
61189;BMP280;47054;39.716;2.904;2022-07-01T03:21:33;100127.84;;;29.67
61189;BMP280;47054;39.716;2.904;2022-07-01T03:24:17;100130.22;;;29.65
61189;BMP280;47054;39.716;2.904;2022-07-01T03:27:05;100114.19;;;29.49
61189;BMP280;47054;39.716;2.904;2022-07-01T03:29:51;100140.28;;;29.59
61189;BMP280;47054;39.716;2.904;2022-07-01T03:32:35;100151.50;;;29.61
61189;BMP280;47054;39.716;2.904;2022-07-01T03:35:20;100150.00;;;29.60
61189;BMP280;47054;39.716;2.904;2022-07-01T03:38:19;100148.19;;;29.57
61189;BMP280;47054;39.716;2.904;2022-07-01T03:41:04;100146.69;;;29.47
61189;BMP280;47054;39.716;2.904;2022-07-01T03:43:48;100111.00;;;29.23
61189;BMP280;47054;39.716;2.904;2022-07-01T03:46:33;100164.72;;;29.53
61189;BMP280;47054;39.716;2.904;2022-07-01T03:49:19;100161.41;;;29.49
61189;BMP280;47054;39.716;2.904;2022-07-01T03:52:04;100161.53;;;29.46
61189;BMP280;47054;39.716;2.904;2022-07-01T03:54:49;100173.53;;;29.48
61189;BMP280;47054;39.716;2.904;2022-07-01T03:57:34;100153.19;;;29.31
61189;BMP280;47054;39.716;2.904;2022-07-01T04:00:18;100172.47;;;29.46
61189;BMP280;47054;39.716;2.904;2022-07-01T04:03:04;100168.84;;;29.40
61189;BMP280;47054;39.716;2.904;2022-07-01T04:05:49;100174.59;;;29.42
61189;BMP280;47054;39.716;2.904;2022-07-01T04:08:33;100173.53;;;29.39
61189;BMP280;47054;39.716;2.904;2022-07-01T04:11:19;100177.50;;;29.38
61189;BMP280;47054;39.716;2.904;2022-07-01T04:14:03;100165.50;;;29.36
61189;BMP280;47054;39.716;2.904;2022-07-01T04:16:51;100167.63;;;29.32
61189;BMP280;47054;39.716;2.904;2022-07-01T04:19:36;100144.41;;;29.18
61189;BMP280;47054;39.716;2.904;2022-07-01T04:22:20;100159.56;;;29.28
61189;BMP280;47054;39.716;2.904;2022-07-01T04:25:17;100162.28;;;29.28
61189;BMP280;47054;39.716;2.904;2022-07-01T04:28:05;100170.03;;;29.30
61189;BMP280;47054;39.716;2.904;2022-07-01T04:30:50;100165.16;;;29.25
61189;BMP280;47054;39.716;2.904;2022-07-01T04:33:35;100171.41;;;29.25
61189;BMP280;47054;39.716;2.904;2022-07-01T04:36:19;100159.53;;;29.10
61189;BMP280;47054;39.716;2.904;2022-07-01T04:39:04;100190.66;;;29.22
61189;BMP280;47054;39.716;2.904;2022-07-01T04:41:49;100186.41;;;29.21
61189;BMP280;47054;39.716;2.904;2022-07-01T04:44:43;100160.88;;;28.96
61189;BMP280;47054;39.716;2.904;2022-07-01T04:47:28;100174.53;;;29.05
61189;BMP280;47054;39.716;2.904;2022-07-01T04:50:16;100164.81;;;28.95
61189;BMP280;47054;39.716;2.904;2022-07-01T04:53:01;100196.84;;;29.13
61189;BMP280;47054;39.716;2.904;2022-07-01T04:55:46;100195.78;;;29.10
61189;BMP280;47054;39.716;2.904;2022-07-01T04:58:30;100207.94;;;29.09
61189;BMP280;47054;39.716;2.904;2022-07-01T05:01:15;100213.09;;;29.07
61189;BMP280;47054;39.716;2.904;2022-07-01T05:03:59;100215.03;;;29.07
61189;BMP280;47054;39.716;2.904;2022-07-01T05:06:44;100217.03;;;29.06
61189;BMP280;47054;39.716;2.904;2022-07-01T05:09:29;100212.78;;;29.05
61189;BMP280;47054;39.716;2.904;2022-07-01T05:12:13;100215.94;;;29.04
61189;BMP280;47054;39.716;2.904;2022-07-01T05:14:58;100217.63;;;29.01
61189;BMP280;47054;39.716;2.904;2022-07-01T05:17:42;100226.59;;;29.02
61189;BMP280;47054;39.716;2.904;2022-07-01T05:20:45;100224.72;;;28.99
61189;BMP280;47054;39.716;2.904;2022-07-01T05:23:48;100232.63;;;28.97
61189;BMP280;47054;39.716;2.904;2022-07-01T05:26:33;100233.81;;;28.96
61189;BMP280;47054;39.716;2.904;2022-07-01T05:29:18;100230.81;;;28.94
61189;BMP280;47054;39.716;2.904;2022-07-01T05:32:03;100230.50;;;28.92
61189;BMP280;47054;39.716;2.904;2022-07-01T05:34:47;100234.56;;;28.87
61189;BMP280;47054;39.716;2.904;2022-07-01T05:37:32;100242.16;;;28.92
61189;BMP280;47054;39.716;2.904;2022-07-01T05:40:16;100237.94;;;28.91
61189;BMP280;47054;39.716;2.904;2022-07-01T05:43:01;100219.19;;;28.72
61189;BMP280;47054;39.716;2.904;2022-07-01T05:45:46;100247.31;;;28.90
61189;BMP280;47054;39.716;2.904;2022-07-01T05:48:30;100260.19;;;28.90
61189;BMP280;47054;39.716;2.904;2022-07-01T05:51:17;100249.00;;;28.88
61189;BMP280;47054;39.716;2.904;2022-07-01T05:54:02;100243.34;;;28.82
61189;BMP280;47054;39.716;2.904;2022-07-01T05:56:46;100235.75;;;28.77
61189;BMP280;47054;39.716;2.904;2022-07-01T05:59:31;100260.31;;;28.86
61189;BMP280;47054;39.716;2.904;2022-07-01T06:02:16;100260.66;;;28.88
61189;BMP280;47054;39.716;2.904;2022-07-01T06:05:00;100255.63;;;28.87
61189;BMP280;47054;39.716;2.904;2022-07-01T06:07:46;100261.09;;;28.87
61189;BMP280;47054;39.716;2.904;2022-07-01T06:10:31;100261.88;;;28.87
61189;BMP280;47054;39.716;2.904;2022-07-01T06:13:16;100244.84;;;28.74
61189;BMP280;47054;39.716;2.904;2022-07-01T06:16:00;100265.78;;;28.86
61189;BMP280;47054;39.716;2.904;2022-07-01T06:18:44;100267.31;;;28.87
61189;BMP280;47054;39.716;2.904;2022-07-01T06:21:29;100270.50;;;28.86
61189;BMP280;47054;39.716;2.904;2022-07-01T06:24:14;100267.78;;;28.86
61189;BMP280;47054;39.716;2.904;2022-07-01T06:26:58;100275.97;;;28.86
61189;BMP280;47054;39.716;2.904;2022-07-01T06:29:44;100273.22;;;28.86
61189;BMP280;47054;39.716;2.904;2022-07-01T06:32:29;100247.38;;;28.69
61189;BMP280;47054;39.716;2.904;2022-07-01T06:35:14;100281.88;;;28.84
61189;BMP280;47054;39.716;2.904;2022-07-01T06:37:58;100284.16;;;28.86
61189;BMP280;47054;39.716;2.904;2022-07-01T06:40:43;100273.47;;;28.70
61189;BMP280;47054;39.716;2.904;2022-07-01T06:43:49;100279.22;;;28.72
61189;BMP280;47054;39.716;2.904;2022-07-01T06:46:33;100302.16;;;28.83
61189;BMP280;47054;39.716;2.904;2022-07-01T06:49:18;100307.94;;;28.85
61189;BMP280;47054;39.716;2.904;2022-07-01T06:52:03;100313.41;;;28.85
61189;BMP280;47054;39.716;2.904;2022-07-01T06:54:50;100320.09;;;28.84
61189;BMP280;47054;39.716;2.904;2022-07-01T06:57:34;100310.34;;;28.83
61189;BMP280;47054;39.716;2.904;2022-07-01T07:00:19;100308.41;;;28.84
61189;BMP280;47054;39.716;2.904;2022-07-01T07:03:04;100318.09;;;28.85
61189;BMP280;47054;39.716;2.904;2022-07-01T07:05:49;100322.38;;;28.86
61189;BMP280;47054;39.716;2.904;2022-07-01T07:08:33;100318.41;;;28.87
61189;BMP280;47054;39.716;2.904;2022-07-01T07:11:18;100321.16;;;28.87
61189;BMP280;47054;39.716;2.904;2022-07-01T07:14:04;100317.66;;;28.86
61189;BMP280;47054;39.716;2.904;2022-07-01T07:16:48;100318.41;;;28.87
61189;BMP280;47054;39.716;2.904;2022-07-01T07:19:35;100324.94;;;28.89
61189;BMP280;47054;39.716;2.904;2022-07-01T07:22:21;100326.47;;;28.90
61189;BMP280;47054;39.716;2.904;2022-07-01T07:25:05;100329.97;;;28.91
61189;BMP280;47054;39.716;2.904;2022-07-01T07:27:50;100335.44;;;28.91
61189;BMP280;47054;39.716;2.904;2022-07-01T07:30:35;100323.75;;;28.90
61189;BMP280;47054;39.716;2.904;2022-07-01T07:33:20;100337.41;;;28.90
61189;BMP280;47054;39.716;2.904;2022-07-01T07:36:09;100337.41;;;28.90
61189;BMP280;47054;39.716;2.904;2022-07-01T07:38:54;100342.41;;;28.92
61189;BMP280;47054;39.716;2.904;2022-07-01T07:41:38;100343.16;;;28.92
61189;BMP280;47054;39.716;2.904;2022-07-01T07:44:24;100345.13;;;28.92
61189;BMP280;47054;39.716;2.904;2022-07-01T07:47:08;100350.59;;;28.92
61189;BMP280;47054;39.716;2.904;2022-07-01T07:49:53;100353.31;;;28.92
61189;BMP280;47054;39.716;2.904;2022-07-01T07:52:39;100320.78;;;28.76
61189;BMP280;47054;39.716;2.904;2022-07-01T07:55:24;100354.53;;;28.91
61189;BMP280;47054;39.716;2.904;2022-07-01T07:58:09;100336.25;;;28.79
61189;BMP280;47054;39.716;2.904;2022-07-01T08:00:54;100362.72;;;28.91
61189;BMP280;47054;39.716;2.904;2022-07-01T08:03:38;100308.69;;;28.55
61189;BMP280;47054;39.716;2.904;2022-07-01T08:06:23;100351.81;;;28.91
61189;BMP280;47054;39.716;2.904;2022-07-01T08:09:08;100363.16;;;28.89
61189;BMP280;47054;39.716;2.904;2022-07-01T08:11:53;100360.00;;;28.91
61189;BMP280;47054;39.716;2.904;2022-07-01T08:14:38;100359.22;;;28.90
61189;BMP280;47054;39.716;2.904;2022-07-01T08:17:23;100356.94;;;28.89
61189;BMP280;47054;39.716;2.904;2022-07-01T08:20:08;100355.72;;;28.90
61189;BMP280;47054;39.716;2.904;2022-07-01T08:22:53;100364.69;;;28.90
61189;BMP280;47054;39.716;2.904;2022-07-01T08:25:38;100360.78;;;28.91
61189;BMP280;47054;39.716;2.904;2022-07-01T08:28:23;100330.94;;;28.75
61189;BMP280;47054;39.716;2.904;2022-07-01T08:31:08;100358.03;;;28.91
61189;BMP280;47054;39.716;2.904;2022-07-01T08:33:53;100341.72;;;28.79
61189;BMP280;47054;39.716;2.904;2022-07-01T08:36:38;100364.25;;;28.92
61189;BMP280;47054;39.716;2.904;2022-07-01T08:39:23;100371.69;;;28.91
61189;BMP280;47054;39.716;2.904;2022-07-01T08:42:08;100359.03;;;28.85
61189;BMP280;47054;39.716;2.904;2022-07-01T08:44:56;100362.09;;;28.87
61189;BMP280;47054;39.716;2.904;2022-07-01T08:47:52;100375.00;;;28.95
61189;BMP280;47054;39.716;2.904;2022-07-01T08:50:40;100371.69;;;28.91
61189;BMP280;47054;39.716;2.904;2022-07-01T08:53:25;100385.63;;;28.93
61189;BMP280;47054;39.716;2.904;2022-07-01T08:56:10;100385.63;;;28.93
61189;BMP280;47054;39.716;2.904;2022-07-01T08:59:21;100382.13;;;28.93
61189;BMP280;47054;39.716;2.904;2022-07-01T09:02:05;100374.66;;;28.84
61189;BMP280;47054;39.716;2.904;2022-07-01T09:05:04;100387.47;;;28.96
61189;BMP280;47054;39.716;2.904;2022-07-01T09:07:55;100402.31;;;28.95
61189;BMP280;47054;39.716;2.904;2022-07-01T09:10:42;100406.56;;;28.96
61189;BMP280;47054;39.716;2.904;2022-07-01T09:13:29;100411.59;;;28.98
61189;BMP280;47054;39.716;2.904;2022-07-01T09:16:15;100406.56;;;28.96
61189;BMP280;47054;39.716;2.904;2022-07-01T09:19:04;100412.34;;;28.98
61189;BMP280;47054;39.716;2.904;2022-07-01T09:21:54;100414.31;;;28.98
61189;BMP280;47054;39.716;2.904;2022-07-01T09:24:44;100411.59;;;28.98
61189;BMP280;47054;39.716;2.904;2022-07-01T09:27:32;100402.25;;;28.86
61189;BMP280;47054;39.716;2.904;2022-07-01T09:30:16;100411.59;;;28.98
61189;BMP280;47054;39.716;2.904;2022-07-01T09:35:57;100427.22;;;28.97
61189;BMP280;47054;39.716;2.904;2022-07-01T09:38:47;100427.06;;;29.01
61189;BMP280;47054;39.716;2.904;2022-07-01T09:41:37;100432.53;;;29.01
61189;BMP280;47054;39.716;2.904;2022-07-01T09:44:21;100418.69;;;28.95
61189;BMP280;47054;39.716;2.904;2022-07-01T09:47:07;100442.72;;;29.00
61189;BMP280;47054;39.716;2.904;2022-07-01T09:49:52;100437.66;;;28.99
61189;BMP280;47054;39.716;2.904;2022-07-01T09:52:38;100448.47;;;29.02
61189;BMP280;47054;39.716;2.904;2022-07-01T09:55:23;100427.16;;;28.88
61189;BMP280;47054;39.716;2.904;2022-07-01T09:58:09;100436.13;;;28.89
61189;BMP280;47054;39.716;2.904;2022-07-01T10:00:54;100453.00;;;28.96
61189;BMP280;47054;39.716;2.904;2022-07-01T10:03:40;100461.22;;;29.05
61189;BMP280;47054;39.716;2.904;2022-07-01T10:06:46;100445.41;;;28.91
61189;BMP280;47054;39.716;2.904;2022-07-01T10:10:06;100472.47;;;29.07
61189;BMP280;47054;39.716;2.904;2022-07-01T10:12:54;100472.47;;;29.07
61189;BMP280;47054;39.716;2.904;2022-07-01T10:15:40;100449.59;;;28.92
61189;BMP280;47054;39.716;2.904;2022-07-01T10:18:27;100474.88;;;29.05
61189;BMP280;47054;39.716;2.904;2022-07-01T10:21:29;100478.25;;;29.09
61189;BMP280;47054;39.716;2.904;2022-07-01T10:24:16;100482.22;;;29.08
61189;BMP280;47054;39.716;2.904;2022-07-01T10:27:01;100464.28;;;29.07
61189;BMP280;47054;39.716;2.904;2022-07-01T10:29:46;100447.53;;;28.96
61189;BMP280;47054;39.716;2.904;2022-07-01T10:32:30;100467.78;;;29.08
61189;BMP280;47054;39.716;2.904;2022-07-01T10:35:14;100456.88;;;29.08
61189;BMP280;47054;39.716;2.904;2022-07-01T10:38:00;100445.44;;;29.00
61189;BMP280;47054;39.716;2.904;2022-07-01T10:40:46;100466.00;;;29.14
61189;BMP280;47054;39.716;2.904;2022-07-01T10:43:34;100469.50;;;29.15
61189;BMP280;47054;39.716;2.904;2022-07-01T10:52:23;100476.47;;;29.16
61189;BMP280;47054;39.716;2.904;2022-07-01T10:55:09;100464.81;;;29.15
61189;BMP280;47054;39.716;2.904;2022-07-01T10:57:54;100462.06;;;29.15
61189;BMP280;47054;39.716;2.904;2022-07-01T11:00:43;100450.78;;;29.13
61189;BMP280;47054;39.716;2.904;2022-07-01T11:03:34;100465.88;;;29.18
61189;BMP280;47054;39.716;2.904;2022-07-01T11:06:19;100452.22;;;29.18
61189;BMP280;47054;39.716;2.904;2022-07-01T11:09:04;100459.47;;;29.12
61189;BMP280;47054;39.716;2.904;2022-07-01T11:11:49;100463.91;;;29.18
61189;BMP280;47054;39.716;2.904;2022-07-01T11:14:40;100472.41;;;29.20
61189;BMP280;47054;39.716;2.904;2022-07-01T11:17:25;100469.66;;;29.20
61189;BMP280;47054;39.716;2.904;2022-07-01T11:20:12;100445.16;;;29.07
61189;BMP280;47054;39.716;2.904;2022-07-01T11:22:58;100471.94;;;29.22
61189;BMP280;47054;39.716;2.904;2022-07-01T11:25:42;100469.22;;;29.22
61189;BMP280;47054;39.716;2.904;2022-07-01T11:28:27;100459.19;;;29.19
61189;BMP280;47054;39.716;2.904;2022-07-01T11:31:12;100468.78;;;29.23
61189;BMP280;47054;39.716;2.904;2022-07-01T11:33:56;100476.97;;;29.23
61189;BMP280;47054;39.716;2.904;2022-07-01T11:36:43;100460.28;;;29.21
61189;BMP280;47054;39.716;2.904;2022-07-01T11:39:46;100474.22;;;29.23
61189;BMP280;47054;39.716;2.904;2022-07-01T11:42:32;100473.38;;;29.26
61189;BMP280;47054;39.716;2.904;2022-07-01T11:45:25;100468.66;;;29.27
61189;BMP280;47054;39.716;2.904;2022-07-01T11:48:09;100467.91;;;29.26
61189;BMP280;47054;39.716;2.904;2022-07-01T11:50:54;100441.41;;;29.14
61189;BMP280;47054;39.716;2.904;2022-07-01T11:53:41;100435.50;;;29.16
61189;BMP280;47054;39.716;2.904;2022-07-01T11:59:14;100454.09;;;29.30
61189;BMP280;47054;39.716;2.904;2022-07-01T12:01:58;100428.81;;;29.17
61189;BMP280;47054;39.716;2.904;2022-07-01T12:04:44;100408.41;;;28.99
61189;BMP280;47054;39.716;2.904;2022-07-01T12:07:29;100425.97;;;29.20
61189;BMP280;47054;39.716;2.904;2022-07-01T12:10:14;100443.00;;;29.33
61189;BMP280;47054;39.716;2.904;2022-07-01T12:13:20;100451.06;;;29.37
61189;BMP280;47054;39.716;2.904;2022-07-01T12:16:11;100449.25;;;29.34
61189;BMP280;47054;39.716;2.904;2022-07-01T12:19:01;100441.03;;;29.34
61189;BMP280;47054;39.716;2.904;2022-07-01T12:21:51;100445.31;;;29.35
61189;BMP280;47054;39.716;2.904;2022-07-01T12:24:39;100434.41;;;29.35
61189;BMP280;47054;39.716;2.904;2022-07-01T12:27:24;100436.69;;;29.36
61189;BMP280;47054;39.716;2.904;2022-07-01T12:30:10;100434.25;;;29.38
61189;BMP280;47054;39.716;2.904;2022-07-01T12:33:08;100439.28;;;29.40
61189;BMP280;47054;39.716;2.904;2022-07-01T12:35:54;100421.16;;;29.33
61189;BMP280;47054;39.716;2.904;2022-07-01T12:38:42;100434.56;;;29.40
61189;BMP280;47054;39.716;2.904;2022-07-01T12:41:32;100433.81;;;29.40
61189;BMP280;47054;39.716;2.904;2022-07-01T12:53:06;100423.94;;;29.42
61189;BMP280;47054;39.716;2.904;2022-07-01T12:55:56;100417.41;;;29.40
61189;BMP280;47054;39.716;2.904;2022-07-01T12:58:40;100406.78;;;29.33
61189;BMP280;47054;39.716;2.904;2022-07-01T13:01:25;100419.69;;;29.41
61189;BMP280;47054;39.716;2.904;2022-07-01T13:04:09;100428.22;;;29.43
61189;BMP280;47054;39.716;2.904;2022-07-01T13:06:54;100421.53;;;29.44
61189;BMP280;47054;39.716;2.904;2022-07-01T13:09:38;100418.81;;;29.44
61189;BMP280;47054;39.716;2.904;2022-07-01T13:12:23;100422.28;;;29.45
61189;BMP280;47054;39.716;2.904;2022-07-01T13:15:07;100393.56;;;29.31
61189;BMP280;47054;39.716;2.904;2022-07-01T13:17:54;100415.16;;;29.47
61189;BMP280;47054;39.716;2.904;2022-07-01T13:20:39;100415.91;;;29.48
61189;BMP280;47054;39.716;2.904;2022-07-01T13:23:24;100422.16;;;29.48
61189;BMP280;47054;39.716;2.904;2022-07-01T13:26:08;100420.94;;;29.49
61189;BMP280;47054;39.716;2.904;2022-07-01T13:28:54;100425.94;;;29.51
61189;BMP280;47054;39.716;2.904;2022-07-01T13:31:39;100427.19;;;29.50
61189;BMP280;47054;39.716;2.904;2022-07-01T13:34:23;100416.25;;;29.50
61189;BMP280;47054;39.716;2.904;2022-07-01T13:37:08;100417.91;;;29.47
61189;BMP280;47054;39.716;2.904;2022-07-01T13:39:52;100419.41;;;29.48
61189;BMP280;47054;39.716;2.904;2022-07-01T13:42:37;100409.25;;;29.49
61189;BMP280;47054;39.716;2.904;2022-07-01T13:45:23;100422.34;;;29.54
61189;BMP280;47054;39.716;2.904;2022-07-01T13:48:08;100417.59;;;29.54
61189;BMP280;47054;39.716;2.904;2022-07-01T13:50:52;100403.31;;;29.41
61189;BMP280;47054;39.716;2.904;2022-07-01T13:53:37;100386.28;;;29.37
61189;BMP280;47054;39.716;2.904;2022-07-01T13:56:21;100417.94;;;29.56
61189;BMP280;47054;39.716;2.904;2022-07-01T13:59:09;100414.47;;;29.56
61189;BMP280;47054;39.716;2.904;2022-07-01T14:01:53;100416.72;;;29.57
61189;BMP280;47054;39.716;2.904;2022-07-01T14:04:38;100414.75;;;29.58
61189;BMP280;47054;39.716;2.904;2022-07-01T14:07:23;100416.25;;;29.59
61189;BMP280;47054;39.716;2.904;2022-07-01T14:10:10;100409.59;;;29.60
61189;BMP280;47054;39.716;2.904;2022-07-01T14:12:55;100411.72;;;29.56
61189;BMP280;47054;39.716;2.904;2022-07-01T14:15:40;100416.56;;;29.61
61189;BMP280;47054;39.716;2.904;2022-07-01T14:18:25;100409.28;;;29.58
61189;BMP280;47054;39.716;2.904;2022-07-01T14:21:10;100382.53;;;29.44
61189;BMP280;47054;39.716;2.904;2022-07-01T14:23:54;100410.78;;;29.59
61189;BMP280;47054;39.716;2.904;2022-07-01T14:26:39;100389.84;;;29.47
61189;BMP280;47054;39.716;2.904;2022-07-01T14:29:26;100416.88;;;29.63
61189;BMP280;47054;39.716;2.904;2022-07-01T14:32:11;100410.22;;;29.64
61189;BMP280;47054;39.716;2.904;2022-07-01T14:34:56;100388.47;;;29.51
61189;BMP280;47054;39.716;2.904;2022-07-01T14:37:41;100410.97;;;29.64
61189;BMP280;47054;39.716;2.904;2022-07-01T14:40:27;100402.91;;;29.61
61189;BMP280;47054;39.716;2.904;2022-07-01T14:43:12;100385.31;;;29.53
61189;BMP280;47054;39.716;2.904;2022-07-01T14:45:56;100413.25;;;29.66
61189;BMP280;47054;39.716;2.904;2022-07-01T14:48:41;100408.56;;;29.66
61189;BMP280;47054;39.716;2.904;2022-07-01T14:51:26;100392.88;;;29.58
61189;BMP280;47054;39.716;2.904;2022-07-01T14:54:11;100401.06;;;29.58
61189;BMP280;47054;39.716;2.904;2022-07-01T14:56:56;100404.59;;;29.67
61189;BMP280;47054;39.716;2.904;2022-07-01T14:59:40;100387.25;;;29.52
61189;BMP280;47054;39.716;2.904;2022-07-01T15:02:27;100414.63;;;29.70
61189;BMP280;47054;39.716;2.904;2022-07-01T15:05:12;100418.88;;;29.71
61189;BMP280;47054;39.716;2.904;2022-07-01T15:07:57;100412.66;;;29.71
61189;BMP280;47054;39.716;2.904;2022-07-01T15:10:41;100413.41;;;29.71
61189;BMP280;47054;39.716;2.904;2022-07-01T15:13:26;100405.69;;;29.70
61189;BMP280;47054;39.716;2.904;2022-07-01T15:16:10;100412.22;;;29.72
61189;BMP280;47054;39.716;2.904;2022-07-01T15:18:55;100391.97;;;29.61
61189;BMP280;47054;39.716;2.904;2022-07-01T15:21:39;100408.44;;;29.70
61189;BMP280;47054;39.716;2.904;2022-07-01T15:24:24;100406.28;;;29.74
61189;BMP280;47054;39.716;2.904;2022-07-01T15:27:09;100404.31;;;29.74
61189;BMP280;47054;39.716;2.904;2022-07-01T15:29:54;100405.97;;;29.72
61189;BMP280;47054;39.716;2.904;2022-07-01T15:32:39;100403.56;;;29.74
61189;BMP280;47054;39.716;2.904;2022-07-01T15:35:24;100407.81;;;29.75
61189;BMP280;47054;39.716;2.904;2022-07-01T15:38:09;100403.69;;;29.70
61189;BMP280;47054;39.716;2.904;2022-07-01T15:40:54;100392.59;;;29.65
61189;BMP280;47054;39.716;2.904;2022-07-01T15:43:39;100413.59;;;29.77
61189;BMP280;47054;39.716;2.904;2022-07-01T15:46:23;100406.16;;;29.77
61189;BMP280;47054;39.716;2.904;2022-07-01T15:49:08;100379.09;;;29.61
61189;BMP280;47054;39.716;2.904;2022-07-01T15:51:52;100406.59;;;29.76
61189;BMP280;47054;39.716;2.904;2022-07-01T15:54:37;100389.91;;;29.74
61189;BMP280;47054;39.716;2.904;2022-07-01T15:57:21;100379.09;;;29.61
61189;BMP280;47054;39.716;2.904;2022-07-01T16:00:06;100391.41;;;29.75
61189;BMP280;47054;39.716;2.904;2022-07-01T16:02:51;100392.50;;;29.77
61189;BMP280;47054;39.716;2.904;2022-07-01T16:05:36;100373.63;;;29.70
61189;BMP280;47054;39.716;2.904;2022-07-01T16:08:36;100384.56;;;29.79